createdAt,value
2023-04-28T00:00:44.724Z,32.17
2023-04-28T00:03:13.480Z,32.08
2023-04-28T00:05:42.203Z,32.00
2023-04-28T00:08:10.632Z,31.95
2023-04-28T00:10:38.933Z,31.90
2023-04-28T00:13:07.307Z,31.82
2023-04-28T00:15:36.119Z,31.78
2023-04-28T00:18:04.440Z,31.80
2023-04-28T00:20:32.935Z,31.75
2023-04-28T00:23:01.315Z,31.60
2023-04-28T00:25:29.593Z,31.44
2023-04-28T00:27:57.904Z,31.31
2023-04-28T00:30:26.192Z,31.22
2023-04-28T00:32:54.633Z,31.18
2023-04-28T00:35:23.147Z,31.07
2023-04-28T00:37:51.646Z,30.98
2023-04-28T00:40:19.924Z,30.83
2023-04-28T00:42:48.636Z,30.72
2023-04-28T00:45:17.179Z,30.65
2023-04-28T00:47:46.083Z,30.58
2023-04-28T00:50:14.814Z,30.52
2023-04-28T00:52:44.658Z,30.45
2023-04-28T00:55:16.287Z,30.35
2023-04-28T00:57:44.671Z,30.26
2023-04-28T01:00:13.604Z,30.06
2023-04-28T01:02:42.072Z,29.93
2023-04-28T01:05:11.290Z,29.79
2023-04-28T01:07:39.955Z,29.62
2023-04-28T01:10:09.012Z,29.50
2023-04-28T01:12:37.726Z,29.37
2023-04-28T01:15:06.585Z,29.30
2023-04-28T01:17:35.221Z,29.18
2023-04-28T01:20:03.775Z,29.01
2023-04-28T01:22:32.573Z,28.89
2023-04-28T01:25:01.209Z,28.71
2023-04-28T01:27:29.585Z,28.55
2023-04-28T01:29:59.386Z,28.42
2023-04-28T01:32:27.684Z,28.26
2023-04-28T01:34:55.955Z,28.13
2023-04-28T01:37:24.845Z,28.01
2023-04-28T01:39:53.213Z,27.94
2023-04-28T01:42:21.554Z,27.90
2023-04-28T01:44:49.817Z,27.83
2023-04-28T01:47:18.051Z,27.68
2023-04-28T01:49:48.400Z,27.56
2023-04-28T01:52:16.693Z,27.51
2023-04-28T01:54:45.014Z,27.47
2023-04-28T01:57:14.424Z,27.34
2023-04-28T01:59:44.132Z,27.22
2023-04-28T02:02:12.526Z,27.07
2023-04-28T02:04:41.200Z,26.90
2023-04-28T02:07:09.410Z,26.78
2023-04-28T02:09:37.659Z,26.67
2023-04-28T02:12:06.091Z,26.56
2023-04-28T02:14:34.321Z,26.44
2023-04-28T02:17:04.150Z,26.27
2023-04-28T02:19:32.789Z,26.14
2023-04-28T02:22:01.121Z,26.05
2023-04-28T02:24:29.371Z,25.94
2023-04-28T02:26:58.183Z,25.84
2023-04-28T02:29:28.715Z,25.78
2023-04-28T02:31:57.402Z,25.69
2023-04-28T02:34:25.715Z,25.65
2023-04-28T02:36:53.981Z,25.62
2023-04-28T02:39:27.641Z,25.52
2023-04-28T02:41:55.927Z,25.39
2023-04-28T02:44:24.179Z,25.30
2023-04-28T02:46:52.485Z,25.18
2023-04-28T02:49:20.699Z,25.07
2023-04-28T02:51:48.931Z,24.99
2023-04-28T02:54:17.389Z,24.89
2023-04-28T02:56:46.082Z,24.82
2023-04-28T02:59:14.359Z,24.75
2023-04-28T03:01:42.747Z,24.64
2023-04-28T03:04:11.237Z,24.51
2023-04-28T03:06:39.583Z,24.41
2023-04-28T03:09:07.857Z,24.34
2023-04-28T03:11:36.241Z,24.27
2023-04-28T03:14:04.483Z,24.20
2023-04-28T03:16:33.187Z,24.15
2023-04-28T03:19:01.664Z,24.10
2023-04-28T03:21:29.871Z,23.99
2023-04-28T03:23:58.050Z,23.90
2023-04-28T03:26:26.299Z,23.80
2023-04-28T03:28:54.553Z,23.71
2023-04-28T03:31:22.822Z,23.60
2023-04-28T03:33:51.067Z,23.50
2023-04-28T03:36:19.298Z,23.43
2023-04-28T03:38:47.957Z,23.42
2023-04-28T03:41:16.192Z,23.36
2023-04-28T03:43:44.355Z,23.31
2023-04-28T03:46:12.663Z,23.20
2023-04-28T03:48:40.980Z,23.13
2023-04-28T03:51:09.204Z,23.08
2023-04-28T03:53:37.414Z,22.94
2023-04-28T03:56:05.861Z,22.85
2023-04-28T03:58:34.092Z,22.80
2023-04-28T04:01:02.576Z,22.73
2023-04-28T04:03:31.272Z,22.65
2023-04-28T04:06:00.217Z,22.57
2023-04-28T04:08:28.946Z,22.53
2023-04-28T04:10:57.220Z,22.51
2023-04-28T04:13:25.464Z,22.48
2023-04-28T04:15:53.881Z,22.40
2023-04-28T04:18:22.200Z,22.37
2023-04-28T04:20:51.353Z,22.35
2023-04-28T04:23:19.556Z,22.27
2023-04-28T04:25:48.193Z,22.21
2023-04-28T04:28:17.073Z,22.15
2023-04-28T04:30:46.126Z,22.06
2023-04-28T04:33:14.344Z,21.96
2023-04-28T04:35:42.681Z,21.92
2023-04-28T04:38:11.342Z,21.86
2023-04-28T04:40:39.533Z,21.82
2023-04-28T04:43:07.734Z,21.76
2023-04-28T04:45:36.040Z,21.66
2023-04-28T04:48:04.652Z,21.55
2023-04-28T04:50:32.870Z,21.53
2023-04-28T04:53:01.087Z,21.48
2023-04-28T04:55:29.479Z,21.44
2023-04-28T04:57:57.730Z,21.39
2023-04-28T05:00:26.005Z,21.32
2023-04-28T05:02:54.542Z,21.22
2023-04-28T05:05:23.199Z,21.14
2023-04-28T05:07:52.146Z,21.11
2023-04-28T05:10:20.433Z,21.12
2023-04-28T05:12:49.286Z,21.12
2023-04-28T05:15:17.763Z,21.07
2023-04-28T05:17:46.337Z,21.03
2023-04-28T05:20:14.661Z,21.00
2023-04-28T05:22:42.857Z,20.94
2023-04-28T05:25:11.269Z,20.77
2023-04-28T05:27:40.500Z,20.70
2023-04-28T05:30:12.076Z,20.64
2023-04-28T05:32:40.303Z,20.56
2023-04-28T05:35:08.883Z,20.50
2023-04-28T05:37:38.614Z,20.45
2023-04-28T05:40:08.763Z,20.35
2023-04-28T05:42:37.269Z,20.29
2023-04-28T05:45:07.702Z,20.27
2023-04-28T05:47:36.210Z,20.21
2023-04-28T05:50:04.576Z,20.18
2023-04-28T05:52:32.791Z,20.12
2023-04-28T05:55:01.000Z,20.09
2023-04-28T05:57:32.034Z,20.08
2023-04-28T06:00:04.937Z,20.01
2023-04-28T06:02:33.341Z,19.97
2023-04-28T06:05:01.938Z,19.90
2023-04-28T06:07:30.425Z,19.85
2023-04-28T06:09:58.613Z,19.83
2023-04-28T06:12:27.161Z,19.75
2023-04-28T06:14:56.293Z,19.71
2023-04-28T06:17:25.032Z,19.63
2023-04-28T06:19:55.289Z,19.58
2023-04-28T06:22:23.471Z,19.55
2023-04-28T06:24:51.639Z,19.48
2023-04-28T06:27:20.032Z,19.39
2023-04-28T06:29:48.470Z,19.37
2023-04-28T06:32:16.713Z,19.39
2023-04-28T06:34:44.960Z,19.38
2023-04-28T06:37:13.372Z,19.39
2023-04-28T06:39:41.672Z,19.37
2023-04-28T06:42:09.879Z,19.34
2023-04-28T06:44:38.075Z,19.33
2023-04-28T06:47:06.624Z,19.30
2023-04-28T06:49:34.909Z,19.27
2023-04-28T06:52:03.123Z,19.17
2023-04-28T06:54:31.966Z,19.13
2023-04-28T06:57:00.323Z,19.12
2023-04-28T06:59:28.704Z,19.08
2023-04-28T07:01:57.884Z,19.01
2023-04-28T07:04:26.295Z,18.92
2023-04-28T07:06:54.847Z,18.90
2023-04-28T07:11:51.570Z,18.86
2023-04-28T07:14:19.928Z,18.83
2023-04-28T07:16:48.773Z,18.76
2023-04-28T07:19:17.224Z,18.69
2023-04-28T07:21:46.204Z,18.62
2023-04-28T07:24:14.559Z,18.57
2023-04-28T07:26:42.879Z,18.52
2023-04-28T07:29:14.275Z,18.48
2023-04-28T07:31:42.598Z,18.42
2023-04-28T07:34:10.839Z,18.37
2023-04-28T07:36:39.038Z,18.30
2023-04-28T07:39:07.869Z,18.26
2023-04-28T07:41:39.755Z,18.21
2023-04-28T07:44:09.093Z,18.19
2023-04-28T07:46:37.777Z,18.17
2023-04-28T07:49:06.238Z,18.17
2023-04-28T07:51:34.676Z,18.17
2023-04-28T07:54:02.911Z,18.17
2023-04-28T07:56:31.875Z,18.16
2023-04-28T07:59:00.107Z,18.16
2023-04-28T08:01:28.399Z,18.08
2023-04-28T08:03:56.798Z,17.98
2023-04-28T08:06:25.296Z,17.95
2023-04-28T08:08:53.547Z,17.94
2023-04-28T08:11:23.240Z,17.95
2023-04-28T08:13:51.430Z,17.90
2023-04-28T08:16:20.482Z,17.87
2023-04-28T08:18:49.232Z,17.80
2023-04-28T08:21:17.536Z,17.76
2023-04-28T08:23:45.759Z,17.72
2023-04-28T08:26:14.246Z,17.70
2023-04-28T08:28:42.490Z,17.70
2023-04-28T08:31:10.802Z,17.70
2023-04-28T08:33:39.890Z,17.63
2023-04-28T08:36:08.781Z,17.58
2023-04-28T08:38:36.977Z,17.53
2023-04-28T08:41:06.131Z,17.53
2023-04-28T08:43:36.944Z,17.48
2023-04-28T08:46:08.963Z,17.44
2023-04-28T08:48:42.495Z,17.40
2023-04-28T08:51:15.108Z,17.35
2023-04-28T08:54:11.715Z,17.34
2023-04-28T08:56:38.505Z,17.31
2023-04-28T08:59:06.709Z,17.30
2023-04-28T09:01:35.448Z,17.30
2023-04-28T09:04:04.628Z,17.31
2023-04-28T09:06:38.259Z,17.28
2023-04-28T09:09:34.228Z,17.25
2023-04-28T09:12:05.431Z,17.22
2023-04-28T09:14:36.125Z,17.14
2023-04-28T09:17:10.438Z,17.10
2023-04-28T09:19:40.245Z,17.08
2023-04-28T09:22:24.864Z,17.07
2023-04-28T09:24:55.973Z,17.04
2023-04-28T09:27:30.298Z,17.03
2023-04-28T09:29:58.513Z,17.02
2023-04-28T09:32:28.809Z,16.99
2023-04-28T09:35:00.501Z,16.94
2023-04-28T09:37:32.544Z,16.88
2023-04-28T09:40:08.138Z,16.84
2023-04-28T09:42:40.734Z,16.77
2023-04-28T09:45:10.941Z,16.73
2023-04-28T09:47:41.825Z,16.66
2023-04-28T09:50:13.625Z,16.62
2023-04-28T09:52:47.037Z,16.57
2023-04-28T09:55:16.260Z,16.52
2023-04-28T09:57:50.060Z,16.45
2023-04-28T10:00:19.628Z,16.42
2023-04-28T10:02:50.804Z,16.38
2023-04-28T10:05:19.448Z,16.35
2023-04-28T10:07:48.292Z,16.30
2023-04-28T10:10:17.175Z,16.25
2023-04-28T10:12:45.916Z,16.21
2023-04-28T10:15:15.041Z,16.19
2023-04-28T10:17:43.304Z,16.16
2023-04-28T10:20:12.779Z,16.12
2023-04-28T10:22:53.385Z,16.10
2023-04-28T10:25:36.985Z,16.06
2023-04-28T10:28:09.716Z,16.02
2023-04-28T10:30:38.901Z,15.98
2023-04-28T10:33:16.287Z,15.96
2023-04-28T10:35:48.653Z,15.93
2023-04-28T10:38:18.056Z,15.90
2023-04-28T10:40:48.485Z,15.90
2023-04-28T10:43:36.022Z,15.86
2023-04-28T10:46:08.438Z,15.84
2023-04-28T10:48:40.755Z,15.81
2023-04-28T10:51:10.414Z,15.80
2023-04-28T10:53:49.132Z,15.79
2023-04-28T10:56:27.843Z,15.75
2023-04-28T10:58:57.856Z,15.70
2023-04-28T11:01:27.911Z,15.66
2023-04-28T11:04:16.833Z,15.62
2023-04-28T11:06:47.834Z,15.62
2023-04-28T11:09:16.018Z,15.62
2023-04-28T11:11:59.073Z,15.61
2023-04-28T11:14:27.214Z,15.61
2023-04-28T11:17:03.776Z,15.57
2023-04-28T11:19:40.029Z,15.50
2023-04-28T11:22:19.659Z,15.45
2023-04-28T11:25:01.853Z,15.46
2023-04-28T11:27:35.319Z,15.46
2023-04-28T11:30:03.679Z,15.42
2023-04-28T11:32:36.674Z,15.36
2023-04-28T11:35:10.561Z,15.32
2023-04-28T11:37:39.894Z,15.29
2023-04-28T11:40:15.099Z,15.25
2023-04-28T11:42:50.212Z,15.22
2023-04-28T11:45:18.563Z,15.23
2023-04-28T11:47:47.167Z,15.24
2023-04-28T11:50:16.633Z,15.23
2023-04-28T11:52:53.625Z,15.22
2023-04-28T11:55:22.564Z,15.20
2023-04-28T11:57:51.014Z,15.19
2023-04-28T12:00:22.754Z,15.16
2023-04-28T12:02:51.725Z,15.12
2023-04-28T12:05:22.962Z,15.06
2023-04-28T12:07:51.277Z,15.03
2023-04-28T12:10:20.637Z,15.02
2023-04-28T12:12:52.820Z,15.00
2023-04-28T12:15:22.879Z,15.00
2023-04-28T12:17:51.907Z,14.96
2023-04-28T12:20:39.224Z,14.89
2023-04-28T12:23:08.851Z,14.87
2023-04-28T12:25:45.749Z,14.83
2023-04-28T12:28:14.264Z,14.84
2023-04-28T12:30:45.352Z,14.83
2023-04-28T12:33:28.128Z,14.85
2023-04-28T12:35:58.301Z,14.79
2023-04-28T12:38:28.005Z,14.75
2023-04-28T12:40:56.575Z,14.74
2023-04-28T12:43:25.034Z,14.71
2023-04-28T12:45:57.323Z,14.71
2023-04-28T12:48:26.003Z,14.68
2023-04-28T12:50:54.305Z,14.67
2023-04-28T12:53:22.556Z,14.61
2023-04-28T12:55:50.808Z,14.59
2023-04-28T12:58:19.243Z,14.60
2023-04-28T13:00:47.865Z,14.59
2023-04-28T13:03:16.651Z,14.57
2023-04-28T13:05:45.164Z,14.55
2023-04-28T13:08:14.838Z,14.54
2023-04-28T13:10:43.516Z,14.52
2023-04-28T13:13:11.835Z,14.49
2023-04-28T13:15:40.262Z,14.47
2023-04-28T13:18:08.905Z,14.48
2023-04-28T13:20:37.089Z,14.43
2023-04-28T13:23:05.277Z,14.41
2023-04-28T13:25:33.512Z,14.40
2023-04-28T13:28:02.566Z,14.39
2023-04-28T13:30:30.760Z,14.37
2023-04-28T13:32:59.366Z,14.33
2023-04-28T13:35:28.074Z,14.28
2023-04-28T13:38:02.868Z,14.28
2023-04-28T13:40:31.413Z,14.26
2023-04-28T13:42:59.650Z,14.28
2023-04-28T13:45:28.020Z,14.27
2023-04-28T13:47:56.546Z,14.26
2023-04-28T13:50:24.823Z,14.30
2023-04-28T13:52:53.618Z,14.31
2023-04-28T13:55:28.397Z,14.33
2023-04-28T13:57:57.447Z,14.34
2023-04-28T14:00:25.679Z,14.35
2023-04-28T14:02:54.117Z,14.38
2023-04-28T14:05:23.178Z,14.40
2023-04-28T14:07:51.691Z,14.44
2023-04-28T14:10:20.001Z,14.48
2023-04-28T14:12:48.828Z,14.54
2023-04-28T14:15:18.881Z,14.62
2023-04-28T14:17:47.412Z,14.66
2023-04-28T14:20:15.639Z,14.74
2023-04-28T14:22:44.088Z,14.80
2023-04-28T14:25:12.373Z,14.85
2023-04-28T14:27:40.808Z,14.93
2023-04-28T14:30:09.809Z,15.01
2023-04-28T14:32:40.991Z,15.12
2023-04-28T14:35:10.377Z,15.20
2023-04-28T14:37:38.760Z,15.31
2023-04-28T14:40:08.038Z,15.41
2023-04-28T14:42:38.097Z,15.49
2023-04-28T14:45:11.552Z,15.58
2023-04-28T14:47:41.209Z,15.65
2023-04-28T14:50:10.949Z,15.73
2023-04-28T14:52:40.246Z,15.81
2023-04-28T14:55:08.841Z,15.88
2023-04-28T14:57:38.546Z,15.94
2023-04-28T15:00:08.808Z,16.00
2023-04-28T15:02:38.005Z,16.07
2023-04-28T15:05:06.937Z,16.16
2023-04-28T15:07:35.436Z,16.23
2023-04-28T15:10:03.712Z,16.31
2023-04-28T15:12:32.904Z,16.43
2023-04-28T15:15:01.347Z,16.54
2023-04-28T15:17:29.625Z,16.69
2023-04-28T15:19:58.130Z,16.80
2023-04-28T15:22:26.692Z,16.89
2023-04-28T15:24:56.234Z,16.97
2023-04-28T15:27:24.698Z,17.07
2023-04-28T15:29:53.122Z,17.17
2023-04-28T15:32:24.381Z,17.19
2023-04-28T15:34:52.866Z,17.27
2023-04-28T15:37:42.381Z,17.38
2023-04-28T15:40:13.106Z,17.48
2023-04-28T15:42:49.658Z,17.57
2023-04-28T15:45:19.300Z,17.70
2023-04-28T15:47:51.932Z,17.76
2023-04-28T15:50:21.346Z,17.83
2023-04-28T15:52:50.855Z,17.89
2023-04-28T15:55:20.781Z,18.01
2023-04-28T15:57:49.963Z,18.16
2023-04-28T16:00:18.436Z,18.25
2023-04-28T16:02:47.830Z,18.29
2023-04-28T16:05:16.352Z,18.33
2023-04-28T16:07:45.315Z,18.42
2023-04-28T16:10:15.501Z,18.52
2023-04-28T16:12:44.313Z,18.70
2023-04-28T16:15:13.680Z,18.82
2023-04-28T16:17:42.602Z,18.89
2023-04-28T16:20:12.497Z,18.98
2023-04-28T16:22:42.453Z,19.08
2023-04-28T16:25:11.369Z,19.11
2023-04-28T16:27:41.564Z,19.14
2023-04-28T16:30:10.864Z,19.21
2023-04-28T16:32:39.228Z,19.34
2023-04-28T16:35:13.050Z,19.45
2023-04-28T16:37:43.860Z,19.59
2023-04-28T16:40:13.336Z,19.75
2023-04-28T16:42:42.939Z,19.92
2023-04-28T16:45:12.240Z,20.08
2023-04-28T16:47:45.294Z,20.19
2023-04-28T16:50:17.392Z,20.28
2023-04-28T16:52:46.211Z,20.29
2023-04-28T16:55:14.488Z,20.35
2023-04-28T16:57:42.789Z,20.45
2023-04-28T17:00:11.906Z,20.59
2023-04-28T17:02:40.259Z,20.76
2023-04-28T17:05:09.114Z,20.86
2023-04-28T17:07:37.395Z,20.96
2023-04-28T17:10:05.987Z,21.07
2023-04-28T17:12:34.267Z,21.22
2023-04-28T17:15:02.716Z,21.40
2023-04-28T17:17:30.991Z,21.54
2023-04-28T17:20:00.717Z,21.57
2023-04-28T17:22:31.518Z,21.51
2023-04-28T17:25:00.157Z,21.49
2023-04-28T17:27:28.421Z,21.58
2023-04-28T17:29:56.783Z,21.75
2023-04-28T17:32:25.144Z,21.91
2023-04-28T17:34:53.998Z,22.03
2023-04-28T17:37:22.369Z,22.13
2023-04-28T17:39:53.481Z,22.15
2023-04-28T17:42:21.909Z,22.19
2023-04-28T17:44:50.338Z,22.24
2023-04-28T17:47:18.714Z,22.30
2023-04-28T17:49:47.207Z,22.41
2023-04-28T17:52:16.336Z,22.50
2023-04-28T17:54:44.598Z,22.57
2023-04-28T17:57:13.934Z,22.59
2023-04-28T17:59:43.436Z,22.60
2023-04-28T18:02:12.553Z,22.67
2023-04-28T18:04:41.114Z,22.73
2023-04-28T18:07:09.385Z,22.81
2023-04-28T18:09:37.802Z,22.84
2023-04-28T18:12:06.429Z,22.96
2023-04-28T18:14:34.824Z,23.06
2023-04-28T18:17:03.042Z,23.09
2023-04-28T18:19:31.402Z,23.13
2023-04-28T18:21:59.758Z,23.13
2023-04-28T18:24:28.226Z,23.20
2023-04-28T18:26:56.494Z,23.25
2023-04-28T18:29:24.745Z,23.39
2023-04-28T18:31:53.398Z,23.53
2023-04-28T18:34:22.104Z,23.62
2023-04-28T18:36:50.840Z,23.71
2023-04-28T18:39:19.326Z,23.78
2023-04-28T18:41:47.870Z,23.90
2023-04-28T18:44:16.091Z,24.02
2023-04-28T18:46:44.327Z,24.09
2023-04-28T18:49:14.460Z,24.18
2023-04-28T18:51:42.862Z,24.16
2023-04-28T18:54:11.229Z,24.21
2023-04-28T18:56:39.498Z,24.18
2023-04-28T18:59:08.853Z,24.31
2023-04-28T19:01:37.744Z,24.50
2023-04-28T19:04:06.389Z,24.64
2023-04-28T19:06:34.849Z,24.68
2023-04-28T19:09:03.507Z,24.59
2023-04-28T19:11:31.808Z,24.64
2023-04-28T19:14:00.024Z,24.75
2023-04-28T19:16:28.284Z,24.77
2023-04-28T19:18:56.704Z,24.93
2023-04-28T19:21:25.653Z,25.01
2023-04-28T19:23:54.496Z,24.96
2023-04-28T19:26:22.783Z,24.97
2023-04-28T19:28:51.111Z,25.11
2023-04-28T19:31:19.401Z,25.19
2023-04-28T19:33:48.082Z,25.27
2023-04-28T19:36:16.309Z,25.39
2023-04-28T19:38:44.566Z,25.49
2023-04-28T19:41:13.506Z,25.62
2023-04-28T19:43:41.920Z,25.74
2023-04-28T19:46:10.181Z,25.82
2023-04-28T19:48:38.403Z,25.85
2023-04-28T19:51:06.822Z,26.00
2023-04-28T19:53:36.334Z,25.93
2023-04-28T19:56:04.809Z,25.97
2023-04-28T19:58:34.324Z,26.05
2023-04-28T20:01:02.624Z,26.13
2023-04-28T20:03:31.053Z,26.19
2023-04-28T20:06:00.083Z,26.18
2023-04-28T20:08:29.224Z,26.33
2023-04-28T20:10:57.502Z,26.41
2023-04-28T20:13:27.908Z,26.57
2023-04-28T20:15:56.695Z,26.75
2023-04-28T20:18:25.000Z,26.92
2023-04-28T20:20:56.664Z,26.93
2023-04-28T20:23:25.037Z,26.96
2023-04-28T20:25:53.476Z,27.18
2023-04-28T20:28:21.775Z,27.37
2023-04-28T20:30:50.026Z,27.42
2023-04-28T20:33:18.644Z,27.25
2023-04-28T20:35:47.126Z,27.25
2023-04-28T20:38:15.445Z,27.31
2023-04-28T20:40:45.050Z,27.32
2023-04-28T20:43:13.271Z,27.46
2023-04-28T20:45:42.800Z,27.75
2023-04-28T20:48:11.680Z,27.92
2023-04-28T20:50:41.795Z,28.04
2023-04-28T20:53:10.534Z,28.21
2023-04-28T20:55:38.806Z,28.35
2023-04-28T20:58:08.384Z,28.50
2023-04-28T21:00:40.834Z,28.60
2023-04-28T21:03:16.121Z,28.82
2023-04-28T21:05:47.575Z,28.99
2023-04-28T21:08:15.965Z,29.00
2023-04-28T21:10:44.318Z,29.12
2023-04-28T21:13:13.866Z,29.34
2023-04-28T21:15:42.401Z,29.53
2023-04-28T21:18:10.641Z,29.57
2023-04-28T21:20:38.930Z,29.77
2023-04-28T21:23:08.348Z,29.93
2023-04-28T21:25:37.544Z,30.01
2023-04-28T21:28:06.089Z,30.10
2023-04-28T21:30:34.295Z,30.13
2023-04-28T21:33:02.785Z,30.22
2023-04-28T21:35:31.138Z,30.41
2023-04-28T21:37:59.466Z,30.44
2023-04-28T21:40:27.810Z,30.42
2023-04-28T21:42:56.427Z,30.56
2023-04-28T21:45:24.813Z,30.75
2023-04-28T21:47:53.094Z,30.80
2023-04-28T21:50:21.354Z,30.70
2023-04-28T21:52:49.558Z,30.58
2023-04-28T21:55:17.893Z,30.30
2023-04-28T21:57:46.611Z,30.25
2023-04-28T22:00:15.477Z,30.41
2023-04-28T22:02:44.263Z,30.52
2023-04-28T22:05:12.748Z,30.55
2023-04-28T22:07:41.027Z,30.55
2023-04-28T22:10:10.618Z,30.58
2023-04-28T22:12:39.467Z,30.51
2023-04-28T22:15:08.392Z,30.44
2023-04-28T22:17:36.660Z,30.44
2023-04-28T22:20:06.130Z,30.52
2023-04-28T22:22:34.449Z,30.55
2023-04-28T22:25:02.859Z,30.67
2023-04-28T22:27:31.483Z,30.59
2023-04-28T22:29:59.756Z,30.53
2023-04-28T22:32:28.467Z,30.51
2023-04-28T22:34:56.841Z,30.45
2023-04-28T22:37:25.060Z,30.31
2023-04-28T22:39:53.527Z,30.11
2023-04-28T22:42:21.982Z,29.79
2023-04-28T22:44:50.261Z,29.54
2023-04-28T22:47:18.870Z,29.37
2023-04-28T22:49:47.460Z,29.24
2023-04-28T22:52:15.703Z,29.38
2023-04-28T22:54:43.979Z,29.43
2023-04-28T22:57:12.461Z,29.40
2023-04-28T22:59:40.668Z,29.35
2023-04-28T23:02:09.714Z,29.25
2023-04-28T23:04:38.104Z,28.91
2023-04-28T23:07:08.141Z,28.70
2023-04-28T23:09:38.069Z,28.54
2023-04-28T23:12:06.873Z,28.16
2023-04-28T23:14:35.329Z,27.77
2023-04-28T23:17:03.664Z,27.44
2023-04-28T23:19:32.577Z,27.19
2023-04-28T23:22:01.224Z,27.06
2023-04-28T23:24:29.923Z,27.02
2023-04-28T23:26:58.289Z,27.04
2023-04-28T23:29:27.031Z,27.05
2023-04-28T23:31:55.695Z,27.12
2023-04-28T23:34:24.328Z,27.21
2023-04-28T23:36:52.708Z,27.19
2023-04-28T23:39:21.028Z,27.20
2023-04-28T23:41:49.362Z,27.27
2023-04-28T23:44:18.112Z,27.24
2023-04-28T23:46:46.766Z,27.10
2023-04-28T23:49:14.992Z,26.89
2023-04-28T23:51:43.817Z,26.66
2023-04-28T23:54:12.489Z,26.57
2023-04-28T23:56:40.757Z,26.50
2023-04-28T23:59:09.252Z,26.46
